Shaws, Illinois
Current Conditions -  °F | °C
As of 11:35 PM on Sunday 21 Dec 2014 (Local Time) from KSQI Reporting Station
Overcast Overcast  
Wind Chill: 29°   Ceiling: 2600
Heat Index: 36°   Visibility: 10mi
Dew Point: 28°   Wind: 9mph
Humidity: 75%   Direction: 140°SE
Pressure: 29.94"   Gusts: NA
Location:  41.7017°N, 89.348°W
Report Text: KSQI 220535Z 14008KT 10SM BKN026 OVC050 02/M02 A2994 RMK AO1
Loading
Personal Weather Stations






























Interactive Weather Map New forecast layout! Learn more

10-Day Weather Forecast

Advertisements
Track Severe Weather on mobile